Time;durP1;ratioP1;P1;durP2;ratioP2;P2;SDS_P1;SDS_P2;PMS_P1;PMS_P2;Temp;Humidity;BMP_temperature;BMP_pressure;BME280_temperature;BME280_humidity;BME280_pressure;Samples;Min_cycle;Max_cycle;Signal;HPM_P1;HPM_P2
2021/07/12 00:00:13;;;;;;;;;;;;;;;;;;;;;
2021/07/12 00:02:44;;;;;;;6.07;4.63;;;;;;;27.87;51.62;100745.70;128306;1085;64029;-86
2021/07/12 00:05:17;;;;;;;5.77;4.53;;;;;;;27.88;51.68;100752.84;128388;1085;64155;-85
2021/07/12 00:07:46;;;;;;;6.27;4.80;;;;;;;27.87;51.74;100742.99;128380;1086;64211;-85
2021/07/12 00:10:37;;;;;;;6.03;4.80;;;;;;;27.87;51.84;100745.70;128368;1086;64259;-86
2021/07/12 00:13:14;;;;;;;5.57;4.57;;;;;;;27.88;51.61;100747.41;128352;1087;65099;-86
2021/07/12 00:15:41;;;;;;;6.10;4.67;;;;;;;27.87;52.02;100745.70;128320;1085;64176;-85
2021/07/12 00:18:20;;;;;;;6.20;4.83;;;;;;;27.87;51.89;100745.70;128383;1086;64588;-86
2021/07/12 00:20:47;;;;;;;6.60;4.57;;;;;;;27.87;51.81;100739.44;128363;1087;64179;-85
2021/07/12 00:23:13;;;;;;;6.10;4.50;;;;;;;27.87;51.91;100740.28;128375;1086;64179;-85
2021/07/12 00:25:54;;;;;;;;;;;;;;;;;;;;;
2021/07/12 00:28:31;;;;;;;5.37;4.33;;;;;;;27.86;51.74;100733.17;128347;1086;64184;-85
2021/07/12 00:30:57;;;;;;;5.73;4.67;;;;;;;27.87;51.84;100736.73;128362;1087;64205;-86
2021/07/12 00:33:23;;;;;;;5.43;4.60;;;;;;;27.86;51.83;100741.31;128391;1086;64137;-85
2021/07/12 00:35:50;;;;;;;6.27;4.83;;;;;;;27.87;51.87;100734.02;128372;1087;64421;-85
2021/07/12 00:38:17;;;;;;;6.73;4.43;;;;;;;27.87;51.92;100739.44;128330;1086;64198;-85
2021/07/12 00:40:44;;;;;;;6.70;4.43;;;;;;;27.88;51.83;100730.30;128371;1087;64134;-86
2021/07/12 00:43:15;;;;;;;6.07;4.67;;;;;;;27.86;51.93;100729.59;128391;1087;64141;-86
2021/07/12 00:45:46;;;;;;;6.03;4.87;;;;;;;27.87;51.76;100734.02;128371;1087;64131;-85
2021/07/12 00:48:33;;;;;;;;;;;;;;;27.86;51.71;100735.02;128392;1087;64114;-85
2021/07/12 00:51:09;;;;;;;7.83;4.60;;;;;;;27.85;51.71;100736.89;128359;1086;64207;-86
2021/07/12 00:53:45;;;;;;;6.23;4.70;;;;;;;27.85;51.79;100730.59;128393;1087;63981;-85
2021/07/12 00:56:22;;;;;;;5.73;4.60;;;;;;;27.85;51.87;100730.59;128064;1086;64191;-85
2021/07/12 00:58:48;;;;;;;6.23;4.80;;;;;;;27.84;52.05;100729.75;128366;1087;63019;-85
2021/07/12 01:01:15;;;;;;;5.77;4.67;;;;;;;27.85;51.69;100730.59;128361;1087;64291;-86
2021/07/12 01:03:50;;;;;;;5.87;4.80;;;;;;;27.84;51.97;100729.75;128391;1087;64240;-86
2021/07/12 01:06:17;;;;;;;5.90;4.27;;;;;;;27.84;51.88;100731.63;128389;1085;64172;-85
2021/07/12 01:08:46;;;;;;;6.03;4.60;;;;;;;27.85;52.05;100736.02;128356;1087;65299;-85
2021/07/12 01:11:19;;;;;;;5.90;4.50;;;;;;;27.85;51.78;100730.59;128379;1085;64173;-86
2021/07/12 01:13:50;;;;;;;5.83;4.70;;;;;;;27.84;51.84;100731.63;128377;1086;64134;-85
2021/07/12 01:17:07;;;;;;;6.13;4.47;;;;;;;27.83;51.87;100736.17;128376;1087;64355;-86
2021/07/12 01:20:15;;;;;;;5.67;4.43;;;;;;;27.84;52.00;100739.77;128368;1086;64218;-86
2021/07/12 01:22:54;;;;;;;6.37;4.70;;;;;;;27.83;51.93;100738.05;128397;1086;64103;-86
2021/07/12 01:26:02;;;;;;;;;;;;;;;;;;;;;
2021/07/12 01:29:07;;;;;;;5.77;4.60;;;;;;;27.83;51.94;100727.20;128364;1087;64215;-86
2021/07/12 01:32:22;;;;;;;5.60;4.80;;;;;;;27.82;52.06;100730.91;128357;1087;64162;-85
2021/07/12 01:35:22;;;;;;;6.10;4.57;;;;;;;27.81;52.02;100730.07;127905;1087;64146;-86
2021/07/12 01:38:35;;;;;;;5.47;4.53;;;;;;;27.81;51.95;100731.91;127935;1087;64134;-85
2021/07/12 01:41:15;;;;;;;6.30;4.80;;;;;;;27.82;52.14;100731.75;127703;1092;64096;-86
2021/07/12 01:44:03;;;;;;;6.03;4.73;;;;;;;27.82;52.13;100734.47;127674;1092;64124;-85
2021/07/12 01:47:08;;;;;;;6.00;4.57;;;;;;;27.82;52.00;100731.75;127637;1091;64224;-85
2021/07/12 01:50:22;;;;;;;5.90;4.75;;;;;;;27.81;51.97;100726.48;127306;1093;64250;-85
2021/07/12 01:53:08;;;;;;;5.90;4.50;;;;;;;27.81;52.20;100735.50;127263;1093;64224;-84
2021/07/12 01:56:10;;;;;;;5.77;4.73;;;;;;;27.80;52.05;100736.50;127307;1093;64172;-84
2021/07/12 01:59:06;;;;;;;6.47;4.47;;;;;;;27.80;51.85;100733.78;127159;1097;64304;-84
2021/07/12 02:01:38;;;;;;;6.10;4.33;;;;;;;27.81;51.84;100737.34;127210;1096;64183;-84
2021/07/12 02:04:13;;;;;;;5.90;4.93;;;;;;;27.82;52.14;100737.18;127171;1095;64421;-85
2021/07/12 02:06:49;;;;;;;6.40;4.57;;;;;;;27.81;51.85;100742.77;127186;1095;64140;-86
2021/07/12 02:09:15;;;;;;;5.53;4.30;;;;;;;27.81;51.80;100743.63;127172;1095;64157;-86
2021/07/12 02:11:42;;;;;;;6.20;4.60;;;;;;;27.82;51.84;100742.60;127216;1093;64156;-85
2021/07/12 02:14:08;;;;;;;6.37;4.73;;;;;;;27.81;52.17;100746.34;127273;1093;64232;-85
2021/07/12 02:16:37;;;;;;;5.83;4.70;;;;;;;27.82;52.19;100745.31;127267;1093;64327;-83
2021/07/12 02:19:11;;;;;;;6.40;4.80;;;;;;;27.81;52.05;100745.48;127639;1093;64153;-86
2021/07/12 02:21:39;;;;;;;5.57;4.53;;;;;;;27.82;51.80;100747.19;127881;1087;61788;-85
2021/07/12 02:24:06;;;;;;;5.28;4.73;;;;;;;27.80;51.92;100744.64;127894;1087;64134;-85
2021/07/12 02:26:34;;;;;;;6.07;4.80;;;;;;;27.81;52.20;100748.19;127881;1087;64125;-86
2021/07/12 02:29:36;;;;;;;6.40;4.93;;;;;;;27.80;52.12;100743.80;127899;1087;64133;-86
2021/07/12 02:32:03;;;;;;;4.93;4.43;;;;;;;27.80;52.01;100744.64;127738;1089;64150;-86
2021/07/12 02:34:50;;;;;;;6.03;4.60;;;;;;;27.80;51.84;100750.06;127710;1090;64284;-86
2021/07/12 02:37:19;;;;;;;6.07;4.30;;;;;;;27.80;51.75;100735.66;127875;1090;64224;-85
2021/07/12 02:39:48;;;;;;;6.27;4.47;;;;;;;27.80;52.19;100739.21;127925;1087;64383;-85
2021/07/12 02:42:15;;;;;;;4.87;3.97;;;;;;;27.79;52.17;100737.50;127932;1087;64165;-86
2021/07/12 02:44:46;;;;;;;5.43;4.30;;;;;;;27.79;52.05;100739.38;127910;1087;64102;-86
2021/07/12 02:47:13;;;;;;;6.63;4.60;;;;;;;27.79;51.92;100740.21;127914;1090;64469;-85
2021/07/12 02:49:40;;;;;;;5.93;4.50;;;;;;;27.80;51.91;100743.80;127901;1087;64147;-85
2021/07/12 02:52:19;;;;;;;6.83;4.83;;;;;;;27.80;51.89;100736.50;127916;1087;63934;-86
2021/07/12 02:54:55;;;;;;;6.70;5.30;;;;;;;27.80;51.96;100738.38;127896;1087;64144;-86
2021/07/12 02:57:22;;;;;;;5.43;4.53;;;;;;;27.80;51.97;100738.38;127900;1086;64278;-85
2021/07/12 02:59:49;;;;;;;6.33;4.90;;;;;;;27.78;52.20;100735.79;127917;1087;64243;-85
2021/07/12 03:02:15;;;;;;;6.70;4.27;;;;;;;27.79;52.03;100740.21;127928;1087;64105;-84
2021/07/12 03:04:51;;;;;;;5.57;4.43;;;;;;;27.80;52.01;100749.22;127883;1087;64178;-86
2021/07/12 03:07:31;;;;;;;5.90;4.57;;;;;;;27.79;51.95;100748.34;127936;1087;64352;-85
2021/07/12 03:10:11;;;;;;;5.67;4.20;;;;;;;27.79;52.01;100750.22;128025;1087;64294;-86
2021/07/12 03:13:05;;;;;;;6.70;4.80;;;;;;;27.80;52.02;100749.22;127958;1085;64272;-85
2021/07/12 03:15:36;;;;;;;6.23;4.40;;;;;;;27.78;52.00;100737.66;127924;1087;64262;-86
2021/07/12 03:18:07;;;;;;;5.97;4.77;;;;;;;27.79;52.11;100744.80;127930;1087;64103;-86
2021/07/12 03:20:38;;;;;;;5.93;4.73;;;;;;;27.79;51.93;100744.80;127996;1085;63154;-84
2021/07/12 03:23:04;;;;;;;5.57;4.40;;;;;;;27.79;52.03;100753.77;127932;1087;64259;-85
2021/07/12 03:25:36;;;;;;;6.37;4.57;;;;;;;27.80;52.18;100754.64;127937;1087;64134;-86
2021/07/12 03:28:04;;;;;;;5.73;4.70;;;;;;;27.79;52.36;100753.77;127931;1086;64144;-86
2021/07/12 03:30:32;;;;;;;6.27;4.63;;;;;;;27.79;51.95;100745.64;128039;1086;64102;-86
2021/07/12 03:33:01;;;;;;;5.23;4.43;;;;;;;27.79;51.98;100756.48;127926;1087;64188;-86
2021/07/12 03:35:36;;;;;;;5.60;4.53;;;;;;;27.80;51.96;100751.94;127970;1086;64169;-85
2021/07/12 03:38:03;;;;;;;6.83;4.93;;;;;;;27.79;52.21;100748.34;127964;1087;64105;-85
2021/07/12 03:40:29;;;;;;;6.50;4.83;;;;;;;27.79;51.98;100742.09;127928;1087;64368;-86
2021/07/12 03:42:56;;;;;;;5.95;4.50;;;;;;;27.79;52.12;100744.80;127948;1087;64111;-85
2021/07/12 03:45:28;;;;;;;6.13;4.93;;;;;;;27.79;52.12;100742.09;128031;1086;64137;-86
2021/07/12 03:47:56;;;;;;;7.90;4.90;;;;;;;27.78;52.06;100743.92;128368;1087;64313;-86
2021/07/12 03:50:44;;;;;;;5.97;4.80;;;;;;;27.78;51.90;100743.92;128407;1086;64140;-86
2021/07/12 03:53:13;;;;;;;6.83;5.33;;;;;;;27.76;51.84;100744.09;128374;1087;64258;-86
2021/07/12 03:55:48;;;;;;;7.33;5.17;;;;;;;27.76;51.91;100748.67;128379;1087;64342;-84
2021/07/12 03:58:15;;;;;;;6.67;5.00;;;;;;;27.76;51.83;100741.38;128365;1087;64165;-85
2021/07/12 04:01:01;;;;;;;7.40;5.00;;;;;;;27.77;51.81;100734.11;128352;1087;64099;-84
2021/07/12 04:03:28;;;;;;;6.50;5.10;;;;;;;27.76;51.99;100737.82;128391;1087;64251;-86
2021/07/12 04:05:54;;;;;;;6.60;5.13;;;;;;;27.76;51.73;100743.25;128352;1087;64022;-85
2021/07/12 04:08:22;;;;;;;5.90;4.65;;;;;;;27.75;51.71;100747.80;128404;1087;64144;-85
2021/07/12 04:10:53;;;;;;;6.93;5.03;;;;;;;27.76;51.71;100745.95;128359;1086;64182;-85
2021/07/12 04:13:20;;;;;;;7.20;5.25;;;;;;;27.75;51.68;100745.09;128392;1087;64746;-85
2021/07/12 04:16:04;;;;;;;7.23;5.43;;;;;;;27.75;51.71;100742.38;128402;1087;64237;-85
2021/07/12 04:18:34;;;;;;;7.65;5.48;;;;;;;27.75;51.76;100749.67;128371;1087;64182;-85
2021/07/12 04:21:01;;;;;;;5.80;5.20;;;;;;;27.76;51.48;100748.67;128376;1087;64318;-85
2021/07/12 04:23:38;;;;;;;8.07;5.60;;;;;;;27.76;51.40;100752.22;128351;1087;64131;-85
2021/07/12 04:26:07;;;;;;;7.77;5.60;;;;;;;27.76;51.53;100754.09;128356;1087;64138;-85
2021/07/12 04:28:33;;;;;;;7.27;5.90;;;;;;;27.78;51.46;100745.80;128395;1087;64144;-85
2021/07/12 04:31:00;;;;;;;7.97;6.70;;;;;;;27.78;51.32;100745.80;128382;1086;64357;-86
2021/07/12 04:33:27;;;;;;;8.23;6.30;;;;;;;27.78;51.36;100751.22;128381;1086;64154;-85
2021/07/12 04:36:02;;;;;;;9.00;6.50;;;;;;;27.79;51.21;100752.94;128405;1087;63952;-85
2021/07/12 04:38:49;;;;;;;7.50;6.20;;;;;;;27.79;51.17;100752.94;128360;1087;64163;-85
2021/07/12 04:41:15;;;;;;;9.13;6.70;;;;;;;27.79;51.13;100750.22;128378;1087;64136;-86
2021/07/12 04:43:42;;;;;;;9.73;6.87;;;;;;;27.78;51.41;100743.92;128388;1085;64111;-85
2021/07/12 04:46:19;;;;;;;7.40;6.60;;;;;;;27.79;50.95;100748.34;128401;1087;64176;-85
2021/07/12 04:49:06;;;;;;;10.23;7.03;;;;;;;27.80;51.09;100754.64;128377;1087;64852;-85
2021/07/12 04:51:41;;;;;;;8.50;6.60;;;;;;;27.80;50.99;100747.34;128341;1085;64140;-86
2021/07/12 04:54:17;;;;;;;8.27;6.77;;;;;;;27.82;51.03;100755.33;128361;1087;64976;-86
2021/07/12 04:56:45;;;;;;;8.83;6.20;;;;;;;27.82;51.09;100756.16;128397;1087;64424;-85
2021/07/12 04:59:12;;;;;;;7.58;6.20;;;;;;;27.83;51.17;100760.59;128378;1087;64310;-86
2021/07/12 05:01:40;;;;;;;7.07;6.37;;;;;;;27.84;51.02;100750.61;128375;1087;64565;-85
2021/07/12 05:04:10;;;;;;;9.50;6.68;;;;;;;27.84;50.81;100756.88;128392;1086;64137;-85
2021/07/12 05:06:46;;;;;;;9.17;6.73;;;;;;;27.85;50.76;100755.88;128370;1086;63990;-85
2021/07/12 05:09:13;;;;;;;8.00;6.17;;;;;;;27.86;50.85;100759.43;128385;1087;64166;-86
2021/07/12 05:11:49;;;;;;;8.30;6.50;;;;;;;27.86;50.63;100757.59;128356;1087;64134;-86
2021/07/12 05:14:21;;;;;;;8.67;6.53;;;;;;;27.87;50.77;100758.43;128392;1087;64211;-86
2021/07/12 05:16:49;;;;;;;8.70;6.90;;;;;;;27.87;50.81;100759.27;128379;1086;63946;-86
2021/07/12 05:19:20;;;;;;;8.10;6.73;;;;;;;27.87;50.64;100764.70;128025;1087;65176;-85
2021/07/12 05:21:46;;;;;;;9.20;6.73;;;;;;;27.88;50.63;100763.69;128354;1085;64211;-85
2021/07/12 05:24:13;;;;;;;8.83;6.93;;;;;;;27.89;50.57;100765.41;128390;1086;64159;-85
2021/07/12 05:26:39;;;;;;;9.50;6.97;;;;;;;27.90;50.43;100760.82;128351;1087;64136;-85
2021/07/12 05:29:25;;;;;;;;;;;;;;;;;;;;;
2021/07/12 05:32:00;;;;;;;9.33;7.23;;;;;;;27.90;50.28;100767.12;128378;1085;64133;-86
2021/07/12 05:34:27;;;;;;;8.73;6.77;;;;;;;27.91;50.36;100774.22;128386;1085;64230;-86
2021/07/12 05:37:02;;;;;;;10.70;6.97;;;;;;;27.92;50.44;100775.94;128374;1087;63932;-87
2021/07/12 05:39:31;;;;;;;9.27;7.00;;;;;;;27.92;50.41;100784.08;128372;1086;64135;-86
2021/07/12 05:41:58;;;;;;;8.87;6.60;;;;;;;27.95;50.30;100779.36;128042;1087;64147;-86
2021/07/12 05:44:33;;;;;;;8.73;7.40;;;;;;;27.95;50.09;100777.48;128406;1087;64158;-86
2021/07/12 05:47:00;;;;;;;10.10;6.87;;;;;;;27.96;50.22;100776.48;128370;1086;64317;-85
2021/07/12 05:49:36;;;;;;;8.33;6.77;;;;;;;27.98;50.05;100776.33;128364;1087;64272;-86
2021/07/12 05:52:03;;;;;;;8.70;6.93;;;;;;;27.97;50.05;100778.20;128390;1085;64131;-85
2021/07/12 05:54:30;;;;;;;10.07;7.50;;;;;;;27.99;49.79;100778.88;128409;1087;64272;-85
2021/07/12 05:56:56;;;;;;;8.77;7.30;;;;;;;28.00;49.82;100779.75;128370;1085;64099;-85
2021/07/12 05:59:37;;;;;;;11.80;7.43;;;;;;;28.00;50.22;100780.59;128388;1087;64111;-86
2021/07/12 06:02:08;;;;;;;7.93;7.13;;;;;;;28.01;49.92;100781.46;128038;1087;64594;-86
2021/07/12 06:04:46;;;;;;;;;;;;;;;;;;;;;
2021/07/12 06:07:15;;;;;;;9.63;6.80;;;;;;;28.02;49.67;100780.46;128346;1085;64072;-86
2021/07/12 06:09:50;;;;;;;10.13;7.20;;;;;;;28.03;49.56;100779.45;128413;1086;64131;-85
2021/07/12 06:12:19;;;;;;;9.90;7.50;;;;;;;28.03;49.61;100774.88;127991;1086;64217;-84
2021/07/12 06:14:45;;;;;;;7.83;6.60;;;;;;;28.03;49.62;100777.59;128304;1087;64267;-84
2021/07/12 06:17:32;;;;;;;9.27;7.17;;;;;;;28.05;49.50;100780.14;128342;1087;64102;-85
2021/07/12 06:20:01;;;;;;;9.87;7.27;;;;;;;28.04;49.50;100773.88;128375;1087;64131;-86
2021/07/12 06:22:30;;;;;;;7.97;6.63;;;;;;;28.07;49.43;100783.56;128360;1087;64083;-85
2021/07/12 06:24:57;;;;;;;8.00;7.13;;;;;;;28.06;49.61;100779.13;128393;1086;64131;-86
2021/07/12 06:27:34;;;;;;;10.63;7.00;;;;;;;28.08;49.37;100782.56;128380;1086;64409;-86
2021/07/12 06:30:17;;;;;;;7.70;6.33;;;;;;;28.08;49.30;100782.56;128306;1087;64213;-86
2021/07/12 06:32:44;;;;;;;7.70;6.53;;;;;;;28.07;49.44;100787.11;128367;1087;64216;-85
2021/07/12 06:35:11;;;;;;;7.77;6.70;;;;;;;28.09;49.21;100787.83;128363;1085;64134;-86
2021/07/12 06:37:38;;;;;;;8.70;7.27;;;;;;;28.09;48.78;100782.39;128297;1087;64039;-86
2021/07/12 06:40:26;;;;;;;7.77;6.63;;;;;;;28.09;49.50;100785.11;128299;1085;64159;-86
2021/07/12 06:42:59;;;;;;;9.00;6.93;;;;;;;28.09;49.30;100779.69;128352;1086;64315;-85
2021/07/12 06:45:25;;;;;;;8.70;6.83;;;;;;;28.10;49.21;100788.66;128030;1086;64386;-86
2021/07/12 06:48:07;;;;;;;9.33;6.77;;;;;;;28.11;48.98;100784.11;128384;1087;64261;-84
2021/07/12 06:50:34;;;;;;;9.37;6.80;;;;;;;28.11;49.12;100773.26;128342;1087;64244;-85
2021/07/12 06:53:01;;;;;;;11.00;7.13;;;;;;;28.12;48.97;100774.94;128375;1085;64377;-86
2021/07/12 06:55:30;;;;;;;8.67;6.70;;;;;;;28.12;49.04;100780.36;128341;1087;64214;-86
2021/07/12 06:58:10;;;;;;;8.43;6.60;;;;;;;28.12;48.98;100772.22;128340;1087;64276;-85
2021/07/12 07:00:37;;;;;;;8.30;6.90;;;;;;;28.12;48.76;100769.51;128352;1087;64160;-86
2021/07/12 07:03:03;;;;;;;8.77;6.90;;;;;;;28.11;48.66;100771.38;128313;1087;64108;-85
2021/07/12 07:05:33;;;;;;;8.40;6.73;;;;;;;28.12;48.61;100777.65;128337;1087;64179;-85
2021/07/12 07:08:05;;;;;;;7.57;6.27;;;;;;;28.13;48.79;100785.66;128423;1086;64111;-86
2021/07/12 07:10:48;;;;;;;8.05;6.78;;;;;;;28.12;48.86;100777.65;128247;1087;64227;-85
2021/07/12 07:13:14;;;;;;;8.70;6.53;;;;;;;28.13;48.57;100782.08;128194;1085;64134;-86
2021/07/12 07:15:41;;;;;;;8.40;6.53;;;;;;;28.12;48.70;100772.22;128267;1085;64038;-85
2021/07/12 07:18:07;;;;;;;9.73;6.60;;;;;;;28.13;48.76;100777.52;128255;1085;64211;-85
2021/07/12 07:20:34;;;;;;;9.73;6.97;;;;;;;28.12;48.51;100773.09;128272;1087;64323;-85
2021/07/12 07:23:01;;;;;;;9.00;6.43;;;;;;;28.14;48.39;100778.36;128294;1087;64163;-84
2021/07/12 07:25:28;;;;;;;7.97;6.33;;;;;;;28.13;48.41;100773.94;128265;1085;64131;-86
2021/07/12 07:27:57;;;;;;;8.07;6.30;;;;;;;28.15;48.66;100777.36;128253;1087;64124;-86
2021/07/12 07:30:29;;;;;;;9.08;6.85;;;;;;;28.15;48.44;100774.64;127987;1087;64214;-85
2021/07/12 07:32:56;;;;;;;7.80;6.80;;;;;;;28.15;48.50;100778.20;128208;1087;64275;-86
2021/07/12 07:35:22;;;;;;;7.97;6.67;;;;;;;28.16;48.55;100779.91;128250;1086;64135;-85
2021/07/12 07:37:50;;;;;;;8.10;6.63;;;;;;;28.15;48.45;100783.63;128172;1086;64147;-85
2021/07/12 07:40:18;;;;;;;9.97;6.60;;;;;;;28.16;48.49;100777.20;128183;1085;63904;-85
2021/07/12 07:42:48;;;;;;;8.83;6.87;;;;;;;28.17;48.05;100780.75;128195;1085;64131;-86
2021/07/12 07:45:15;;;;;;;7.77;6.00;;;;;;;28.17;48.15;100780.75;128224;1085;64243;-85
2021/07/12 07:47:42;;;;;;;9.13;6.83;;;;;;;28.17;48.32;100778.03;128201;1087;64284;-85
2021/07/12 07:50:14;;;;;;;10.43;7.10;;;;;;;28.17;48.33;100778.91;128282;1086;64272;-85
2021/07/12 07:52:40;;;;;;;7.53;6.63;;;;;;;28.18;48.19;100779.75;128298;1087;64118;-85
2021/07/12 07:55:08;;;;;;;10.27;7.20;;;;;;;28.18;48.10;100779.75;128391;1086;64323;-86
2021/07/12 07:57:36;;;;;;;;;;;;;;;28.16;48.07;100774.48;128389;1086;64129;-85
2021/07/12 08:00:06;;;;;;;7.70;6.63;;;;;;;28.16;47.90;100781.75;128340;1086;64170;-85
2021/07/12 08:02:40;;;;;;;10.40;6.73;;;;;;;28.16;48.15;100788.05;128329;1086;64102;-85
2021/07/12 08:05:08;;;;;;;7.97;6.33;;;;;;;28.15;48.29;100782.78;128368;1085;64187;-85
2021/07/12 08:07:44;;;;;;;9.87;6.90;;;;;;;28.15;47.88;100777.36;128370;1085;64089;-85
2021/07/12 08:10:13;;;;;;;9.83;7.23;;;;;;;28.15;47.95;100778.20;128329;1086;64227;-85
2021/07/12 08:12:40;;;;;;;9.40;6.90;;;;;;;28.16;47.61;100779.91;128348;1086;64101;-84
2021/07/12 08:15:08;;;;;;;10.00;6.77;;;;;;;28.17;47.88;100769.89;128385;1087;64225;-84
2021/07/12 08:17:54;;;;;;;9.20;7.47;;;;;;;28.17;47.98;100767.17;128360;1086;62368;-85
2021/07/12 08:20:24;;;;;;;8.17;6.83;;;;;;;28.16;47.92;100769.05;128349;1086;64208;-85
2021/07/12 08:22:51;;;;;;;8.43;7.13;;;;;;;28.17;48.00;100767.17;128290;1087;64139;-85
2021/07/12 08:25:30;;;;;;;8.03;6.70;;;;;;;28.17;48.02;100769.89;128388;1087;64285;-84
2021/07/12 08:27:57;;;;;;;8.27;6.90;;;;;;;28.16;48.12;100760.91;128338;1086;64102;-85
2021/07/12 08:30:31;;;;;;;9.67;6.83;;;;;;;28.17;47.94;100765.34;128363;1087;64125;-86
2021/07/12 08:32:57;;;;;;;8.17;6.30;;;;;;;28.16;47.92;100766.34;128348;1086;64211;-86
2021/07/12 08:35:40;;;;;;;7.83;7.03;;;;;;;28.17;48.02;100775.32;128390;1087;63070;-86
2021/07/12 08:38:09;;;;;;;8.00;6.40;;;;;;;28.17;48.08;100761.75;128361;1087;64295;-85
2021/07/12 08:40:38;;;;;;;8.60;6.93;;;;;;;28.16;47.72;100758.20;128356;1087;64160;-85
2021/07/12 08:43:14;;;;;;;11.40;7.00;;;;;;;28.17;47.98;100756.33;128345;1087;64683;-86
2021/07/12 08:45:50;;;;;;;8.83;7.27;;;;;;;28.17;47.66;100761.75;128389;1085;64287;-86
2021/07/12 08:48:16;;;;;;;9.30;7.33;;;;;;;28.16;48.00;100758.20;128391;1086;64198;-86
2021/07/12 08:50:43;;;;;;;8.57;6.47;;;;;;;28.17;47.67;100754.48;128375;1086;64160;-85
2021/07/12 08:53:16;;;;;;;10.87;7.33;;;;;;;28.17;48.24;100759.91;128387;1087;64139;-85
2021/07/12 08:55:44;;;;;;;8.87;6.70;;;;;;;28.17;48.05;100761.75;128390;1087;62260;-85
2021/07/12 08:58:25;;;;;;;9.20;7.00;;;;;;;28.17;48.12;100757.20;128349;1087;64418;-86
2021/07/12 09:01:03;;;;;;;8.90;7.43;;;;;;;28.18;48.34;100760.75;128324;1086;64172;-85
2021/07/12 09:03:40;;;;;;;8.80;6.73;;;;;;;28.18;47.87;100758.03;128376;1087;64931;-86
2021/07/12 09:06:13;;;;;;;8.93;7.30;;;;;;;28.17;48.04;100756.33;128393;1087;63949;-86
2021/07/12 09:08:59;;;;;;;8.80;6.93;;;;;;;28.18;48.12;100760.75;128352;1084;64160;-85
2021/07/12 09:11:34;;;;;;;11.53;7.27;;;;;;;28.18;48.21;100756.16;128328;1085;64125;-83
2021/07/12 09:14:09;;;;;;;9.80;7.17;;;;;;;28.18;48.18;100758.88;128333;1087;64121;-85
2021/07/12 09:16:50;;;;;;;10.87;7.37;;;;;;;28.18;48.03;100755.32;128023;1086;64322;-85
2021/07/12 09:19:35;;;;;;;9.30;7.00;;;;;;;28.18;47.92;100753.45;128336;1087;64022;-85
2021/07/12 09:22:02;;;;;;;8.97;7.60;;;;;;;28.17;48.29;100757.20;128398;1086;64182;-85
2021/07/12 09:24:49;;;;;;;;;;;;;;;;;;;;;
2021/07/12 09:27:26;;;;;;;8.90;7.43;;;;;;;28.18;48.13;100755.32;128351;1087;64144;-85
2021/07/12 09:30:01;;;;;;;8.60;7.57;;;;;;;28.17;48.42;100756.33;128363;1086;64164;-85
2021/07/12 09:33:07;;;;;;;9.23;7.43;;;;;;;28.17;48.12;100749.05;128335;1087;64144;-86
2021/07/12 09:35:37;;;;;;;9.40;7.80;;;;;;;28.18;48.17;100755.32;128385;1085;64208;-85
2021/07/12 09:38:31;;;;;;;9.03;7.23;;;;;;;28.17;48.30;100759.04;128396;1087;64172;-85
2021/07/12 09:40:57;;;;;;;10.97;8.00;;;;;;;28.17;48.38;100750.89;128329;1085;64208;-86
2021/07/12 09:43:36;;;;;;;8.70;7.80;;;;;;;28.18;48.02;100755.32;128042;1087;64217;-85
2021/07/12 09:46:06;;;;;;;10.53;7.58;;;;;;;28.17;48.03;100759.91;128383;1087;64099;-85
2021/07/12 09:48:40;;;;;;;8.33;7.50;;;;;;;28.17;48.48;100750.89;128384;1087;64190;-85
2021/07/12 09:51:06;;;;;;;9.10;7.63;;;;;;;28.17;48.13;100754.48;128389;1086;64157;-85
2021/07/12 09:53:36;;;;;;;9.87;7.70;;;;;;;28.16;48.13;100752.77;128334;1087;64179;-86
2021/07/12 09:56:13;;;;;;;9.97;7.70;;;;;;;28.17;48.24;100759.91;128347;1086;64307;-85
2021/07/12 09:58:39;;;;;;;8.63;7.10;;;;;;;28.17;48.48;100753.61;128369;1087;64095;-85
2021/07/12 10:01:10;;;;;;;9.10;7.93;;;;;;;28.16;48.33;100758.20;128387;1087;64639;-85
2021/07/12 10:03:40;;;;;;;9.17;7.87;;;;;;;28.17;48.59;100756.33;128391;1085;64160;-85
2021/07/12 10:06:06;;;;;;;11.70;7.83;;;;;;;28.16;48.27;100760.91;128308;1087;64153;-86
2021/07/12 10:08:38;;;;;;;9.50;7.90;;;;;;;28.16;48.38;100758.20;128383;1086;64157;-84
2021/07/12 10:11:16;;;;;;;9.63;8.10;;;;;;;28.15;48.40;100753.77;128363;1086;64108;-85
2021/07/12 10:13:43;;;;;;;;;;;;;;;28.15;48.23;100752.94;128385;1086;64206;-85
2021/07/12 10:16:12;;;;;;;10.03;7.77;;;;;;;28.14;48.28;100754.77;128335;1087;64280;-85
2021/07/12 10:18:40;;;;;;;11.33;7.97;;;;;;;28.14;47.94;100756.65;128335;1087;64194;-85
2021/07/12 10:21:09;;;;;;;9.47;7.30;;;;;;;28.13;48.39;100755.81;128211;1086;64182;-82
2021/07/12 10:23:38;;;;;;;8.40;7.40;;;;;;;28.14;48.35;100765.63;128338;1087;64160;-85
2021/07/12 10:26:04;;;;;;;8.93;7.93;;;;;;;28.15;48.24;100758.36;128360;1087;64211;-84
2021/07/12 10:28:43;;;;;;;8.90;8.00;;;;;;;28.15;48.53;100755.65;128245;1087;62284;-84
2021/07/12 10:31:19;;;;;;;9.00;7.78;;;;;;;28.14;48.26;100752.06;128427;1087;64208;-85
2021/07/12 10:33:45;;;;;;;9.27;7.67;;;;;;;28.15;47.89;100755.65;128192;1085;63990;-84
2021/07/12 10:36:11;;;;;;;9.23;7.60;;;;;;;28.17;48.12;100756.33;128263;1085;64301;-84
2021/07/12 10:38:42;;;;;;;9.20;7.80;;;;;;;28.16;48.14;100755.48;128258;1086;64144;-84
2021/07/12 10:41:38;;;;;;;9.73;7.77;;;;;;;28.17;48.10;100748.18;128531;1087;61589;-84
2021/07/12 10:44:05;;;;;;;9.23;7.90;;;;;;;28.17;48.22;100748.18;127907;1087;64222;-85
2021/07/12 10:46:32;;;;;;;8.53;7.67;;;;;;;28.17;48.17;100751.77;127881;1087;64303;-86
2021/07/12 10:49:04;;;;;;;8.13;7.28;;;;;;;28.15;48.21;100745.63;127916;1087;64607;-86
2021/07/12 10:51:36;;;;;;;9.07;8.00;;;;;;;28.17;48.24;100742.75;127941;1087;64144;-86
2021/07/12 10:54:16;;;;;;;10.33;7.70;;;;;;;28.16;47.90;100744.63;127911;1087;64218;-84
2021/07/12 10:57:01;;;;;;;8.23;7.27;;;;;;;28.16;47.98;100741.91;127873;1087;64160;-84
2021/07/12 10:59:33;;;;;;;9.53;7.90;;;;;;;28.16;48.02;100744.63;127932;1087;61821;-85
2021/07/12 11:02:04;;;;;;;10.03;7.87;;;;;;;28.16;48.07;100744.63;127942;1086;64168;-85
2021/07/12 11:04:53;;;;;;;8.80;7.60;;;;;;;28.17;47.97;100740.04;127958;1087;64591;-85
2021/07/12 11:07:38;;;;;;;10.55;7.83;;;;;;;28.15;48.20;100731.22;127950;1087;64195;-85
2021/07/12 11:10:05;;;;;;;9.77;8.07;;;;;;;28.14;48.24;100735.78;128106;1087;64060;-85
2021/07/12 11:12:39;;;;;;;8.00;7.20;;;;;;;28.16;48.20;100733.77;127919;1087;64144;-85
2021/07/12 11:15:11;;;;;;;8.77;7.63;;;;;;;28.16;48.27;100741.91;127887;1087;62706;-85
2021/07/12 11:18:09;;;;;;;8.67;7.40;;;;;;;28.16;48.17;100733.77;127918;1087;64144;-84
2021/07/12 11:21:10;;;;;;;8.83;7.53;;;;;;;28.16;48.07;100728.34;128020;1087;64130;-84
2021/07/12 11:23:41;;;;;;;8.55;7.65;;;;;;;28.15;47.92;100726.63;128357;1087;64745;-84
2021/07/12 11:26:40;;;;;;;8.40;7.50;;;;;;;28.16;48.30;100728.34;128376;1087;64105;-86
2021/07/12 11:29:14;;;;;;;9.63;7.83;;;;;;;28.17;48.24;100721.05;127872;1087;64275;-84
2021/07/12 11:31:48;;;;;;;8.40;7.60;;;;;;;28.16;48.14;100722.92;127899;1087;64138;-86
2021/07/12 11:34:33;;;;;;;9.37;7.50;;;;;;;28.15;48.10;100717.66;127850;1087;64144;-85
2021/07/12 11:37:15;;;;;;;8.37;7.43;;;;;;;28.16;48.29;100720.20;127897;1087;64132;-86
2021/07/12 11:39:56;;;;;;;8.80;7.90;;;;;;;28.17;47.91;100718.33;127878;1087;64379;-85
2021/07/12 11:42:28;;;;;;;10.10;7.90;;;;;;;28.15;48.25;100715.78;127940;1087;64007;-86
2021/07/12 11:45:06;;;;;;;8.50;7.60;;;;;;;28.15;47.90;100704.92;127907;1087;64169;-85
2021/07/12 11:47:45;;;;;;;9.15;7.80;;;;;;;28.15;48.14;100699.50;127911;1087;64278;-85
2021/07/12 11:50:18;;;;;;;;;;;;;;;28.15;47.89;100695.95;127944;1087;64237;-86
2021/07/12 11:52:46;;;;;;;9.03;7.97;;;;;;;28.15;48.24;100698.66;127945;1087;64160;-86
2021/07/12 11:55:24;;;;;;;10.17;8.07;;;;;;;28.14;48.23;100700.50;127941;1087;64218;-86